Time;durP1;ratioP1;P1;durP2;ratioP2;P2;SDS_P1;SDS_P2;PMS_P1;PMS_P2;Temp;Humidity;BMP_temperature;BMP_pressure;BME280_temperature;BME280_humidity;BME280_pressure;Samples;Min_cycle;Max_cycle;Signal;HPM_P1;HPM_P2
2023/10/21 00:02:21;;;;;;;20.05;12.40;;;;;;;16.22;66.23;99363.19;5051448;28;20050;-42
2023/10/21 00:04:46;;;;;;;16.92;11.32;;;;;;;16.30;65.72;99361.97;5051450;28;20036;-46
2023/10/21 00:07:11;;;;;;;22.23;12.55;;;;;;;16.25;65.82;99368.06;5051790;28;20112;-43
2023/10/21 00:09:37;;;;;;;18.02;12.10;;;;;;;16.18;65.62;99370.94;5051265;28;20389;-41
2023/10/21 00:12:02;;;;;;;21.13;11.85;;;;;;;16.28;65.29;99369.44;5051217;28;20021;-42
2023/10/21 00:14:28;;;;;;;21.55;12.63;;;;;;;16.12;65.98;99365.75;5051572;28;20028;-44
2023/10/21 00:16:53;;;;;;;19.30;11.88;;;;;;;16.14;65.82;99355.56;5051057;28;20544;-45
2023/10/21 00:19:19;;;;;;;31.15;13.45;;;;;;;16.13;65.25;99362.03;5051792;28;20032;-44
2023/10/21 00:21:44;;;;;;;17.92;12.20;;;;;;;16.11;65.70;99353.41;5051373;28;20582;-46
2023/10/21 00:24:10;;;;;;;22.23;12.38;;;;;;;16.16;65.26;99356.13;5051282;28;20477;-45
2023/10/21 00:26:47;;;;;;;19.25;12.15;;;;;;;16.15;65.27;99366.06;5051314;28;20431;-44
2023/10/21 00:29:14;;;;;;;19.60;12.18;;;;;;;16.10;65.62;99363.31;5051205;28;20686;-43
2023/10/21 00:31:40;;;;;;;18.05;11.77;;;;;;;15.96;66.06;99364.75;5055218;28;20114;-46
2023/10/21 00:34:06;;;;;;;19.13;12.68;;;;;;;15.96;65.75;99368.25;5055422;28;20029;-42
2023/10/21 00:36:31;;;;;;;20.65;12.38;;;;;;;15.97;65.70;99372.56;5055299;28;20028;-42
2023/10/21 00:38:57;;;;;;;20.60;12.43;;;;;;;15.90;66.22;99376.47;5054622;28;20055;-43
2023/10/21 00:41:22;;;;;;;26.52;12.75;;;;;;;15.81;67.19;99373.41;5055063;28;20031;-44
2023/10/21 00:43:47;;;;;;;17.45;12.25;;;;;;;15.86;66.03;99381.53;5055093;28;20117;-42
2023/10/21 00:46:18;;;;;;;21.38;12.73;;;;;;;15.87;66.71;99375.09;5054972;28;20021;-45
2023/10/21 00:48:44;;;;;;;20.85;12.68;;;;;;;15.76;67.14;99373.31;5055107;28;20465;-44
2023/10/21 00:51:10;;;;;;;21.75;11.82;;;;;;;15.71;66.98;99374.03;5054801;28;20059;-42
2023/10/21 00:53:36;;;;;;;22.92;12.52;;;;;;;15.69;66.89;99370.78;5054979;28;20028;-44
2023/10/21 00:56:03;;;;;;;18.83;12.38;;;;;;;15.63;67.39;99374.44;5054749;28;20400;-44
2023/10/21 00:58:31;;;;;;;20.23;12.50;;;;;;;15.61;67.17;99380.06;5054782;28;20027;-43
2023/10/21 01:01:02;;;;;;;20.85;12.60;;;;;;;15.71;66.48;99367.88;5054948;28;20021;-46
2023/10/21 01:03:29;;;;;;;19.88;12.23;;;;;;;15.73;67.06;99366.59;5054496;28;20020;-46
2023/10/21 01:05:55;;;;;;;17.42;12.25;;;;;;;15.76;66.60;99365.25;5054522;28;20063;-44
2023/10/21 01:08:20;;;;;;;22.00;12.45;;;;;;;15.73;66.85;99371.94;5054531;28;20017;-46
2023/10/21 01:10:46;;;;;;;21.75;12.05;;;;;;;15.66;66.72;99368.59;5054364;28;20382;-43
2023/10/21 01:13:11;;;;;;;21.27;12.02;;;;;;;15.71;66.79;99378.59;5054302;28;20060;-43
2023/10/21 01:15:37;;;;;;;21.40;13.02;;;;;;;15.63;67.02;99380.63;5054386;28;20103;-46
2023/10/21 01:18:04;;;;;;;22.48;12.38;;;;;;;15.63;66.57;99369.91;5054243;28;20465;-45
2023/10/21 01:20:30;;;;;;;17.88;12.00;;;;;;;15.56;66.60;99374.63;5054206;28;20112;-44
2023/10/21 01:23:02;;;;;;;21.13;12.23;;;;;;;15.60;66.06;99367.69;5054003;28;20029;-46
2023/10/21 01:25:27;;;;;;;21.17;12.43;;;;;;;15.59;66.26;99370.63;5054153;28;20473;-41
2023/10/21 01:27:54;;;;;;;25.58;13.18;;;;;;;15.56;66.74;99377.28;5054170;28;20082;-46
2023/10/21 01:30:20;;;;;;;21.15;13.07;;;;;;;15.52;66.70;99370.00;5054116;28;20025;-44
2023/10/21 01:32:49;;;;;;;21.95;13.27;;;;;;;15.55;66.41;99359.56;5054079;28;20036;-43
2023/10/21 01:35:18;;;;;;;26.17;13.02;;;;;;;15.56;66.64;99365.75;5054311;28;20024;-43
2023/10/21 01:37:45;;;;;;;17.42;12.93;;;;;;;15.64;66.45;99363.47;5053859;28;20081;-44
2023/10/21 01:40:12;;;;;;;22.30;13.60;;;;;;;15.55;66.96;99369.50;5054070;28;20118;-44
2023/10/21 01:42:38;;;;;;;22.13;13.30;;;;;;;15.60;66.10;99377.63;5053410;28;20492;-44
2023/10/21 01:45:05;;;;;;;21.75;12.90;;;;;;;15.55;66.74;99372.97;5053856;28;20493;-45
2023/10/21 01:47:31;;;;;;;20.90;13.20;;;;;;;15.54;66.49;99374.03;5053670;28;20024;-43
2023/10/21 01:49:57;;;;;;;20.52;13.25;;;;;;;15.38;67.08;99382.91;5053113;28;20025;-42
2023/10/21 01:52:23;;;;;;;21.98;13.48;;;;;;;15.45;67.25;99380.88;5053661;28;20025;-43
2023/10/21 01:54:49;;;;;;;24.17;13.70;;;;;;;15.50;67.55;99389.00;5053747;28;20021;-43
2023/10/21 01:57:15;;;;;;;22.67;13.43;;;;;;;15.47;67.37;99389.47;5053598;28;20492;-45
2023/10/21 01:59:40;;;;;;;19.15;13.35;;;;;;;15.49;66.97;99386.56;5053506;28;20025;-48
2023/10/21 02:02:06;;;;;;;21.70;13.85;;;;;;;15.42;67.31;99384.88;5053618;28;20098;-43
2023/10/21 02:04:32;;;;;;;21.48;13.45;;;;;;;15.51;66.63;99404.03;5053143;28;20377;-45
2023/10/21 02:06:57;;;;;;;21.42;14.05;;;;;;;15.47;67.30;99389.47;5053683;28;20017;-43
2023/10/21 02:09:23;;;;;;;21.92;13.32;;;;;;;15.39;67.29;99393.38;5053504;28;20100;-45
2023/10/21 02:11:48;;;;;;;20.95;13.65;;;;;;;15.48;66.74;99398.31;5053309;28;20416;-45
2023/10/21 02:14:14;;;;;;;23.20;14.07;;;;;;;15.48;67.01;99396.47;5053242;28;20449;-45
2023/10/21 02:16:40;;;;;;;18.23;13.35;;;;;;;15.38;67.36;99396.31;5053074;28;20352;-45
2023/10/21 02:19:05;;;;;;;25.33;13.95;;;;;;;15.34;67.56;99406.69;5053116;28;20025;-46
2023/10/21 02:21:30;;;;;;;21.13;13.80;;;;;;;15.24;67.41;99393.94;5053540;28;20548;-43
2023/10/21 02:23:56;;;;;;;22.83;13.52;;;;;;;15.28;67.92;99413.03;5053311;28;20017;-47
2023/10/21 02:26:21;;;;;;;21.30;13.43;;;;;;;15.27;67.28;99413.28;5053182;28;20108;-47
2023/10/21 02:28:47;;;;;;;19.70;13.75;;;;;;;15.40;67.02;99415.63;5053042;28;20369;-43
2023/10/21 02:31:12;;;;;;;21.05;13.55;;;;;;;15.35;67.36;99423.63;5052906;28;20057;-45
2023/10/21 02:33:38;;;;;;;24.05;14.07;;;;;;;15.36;66.64;99428.72;5052793;28;20108;-44
2023/10/21 02:36:04;;;;;;;20.92;13.43;;;;;;;15.32;67.44;99426.78;5052496;28;20024;-44
2023/10/21 02:38:30;;;;;;;22.23;13.70;;;;;;;15.38;66.81;99431.16;5052621;28;20076;-45
2023/10/21 02:40:55;;;;;;;21.20;14.07;;;;;;;15.39;66.73;99430.13;5052856;28;20057;-46
2023/10/21 02:43:21;;;;;;;22.58;14.60;;;;;;;15.44;66.60;99433.69;5052986;28;20060;-42
2023/10/21 02:45:48;;;;;;;19.52;13.65;;;;;;;15.39;67.46;99443.53;5052651;28;20025;-44
2023/10/21 02:48:14;;;;;;;24.52;13.82;;;;;;;15.35;67.57;99429.78;5052850;28;20039;-42
2023/10/21 02:50:40;;;;;;;20.23;13.48;;;;;;;15.19;67.58;99439.44;5052703;28;20473;-46
2023/10/21 02:53:05;;;;;;;21.95;13.88;;;;;;;15.20;67.85;99427.66;5051314;28;20448;-43
2023/10/21 02:55:30;;;;;;;20.33;13.35;;;;;;;15.01;68.74;99439.63;5052811;28;20373;-43
2023/10/21 02:57:56;;;;;;;22.80;13.90;;;;;;;15.11;68.68;99441.69;5052405;28;20489;-47
2023/10/21 03:00:22;;;;;;;22.33;13.43;;;;;;;15.20;67.90;99437.56;5052304;28;20086;-44
2023/10/21 03:02:51;;;;;;;22.38;13.77;;;;;;;15.08;67.94;99447.50;5052366;28;20013;-46
2023/10/21 03:05:17;;;;;;;23.80;13.35;;;;;;;15.20;67.83;99448.28;5052647;28;20377;-47
2023/10/21 03:07:43;;;;;;;24.05;14.38;;;;;;;15.15;67.86;99454.34;5052344;28;20024;-44
2023/10/21 03:10:10;;;;;;;22.10;13.68;;;;;;;15.27;67.88;99459.69;5052463;28;20031;-44
2023/10/21 03:12:35;;;;;;;21.95;13.73;;;;;;;15.17;67.78;99463.00;5051916;28;20029;-43
2023/10/21 03:15:01;;;;;;;20.88;13.60;;;;;;;15.21;68.16;99466.81;5052189;28;20046;-47
2023/10/21 03:17:26;;;;;;;22.60;13.98;;;;;;;15.23;67.86;99466.53;5052036;28;20044;-48
2023/10/21 03:19:55;;;;;;;19.70;13.65;;;;;;;15.21;68.02;99461.44;5052008;28;20024;-44
2023/10/21 03:22:21;;;;;;;21.35;13.18;;;;;;;15.32;67.54;99467.78;5052001;28;20037;-46
2023/10/21 03:24:46;;;;;;;22.90;13.75;;;;;;;15.30;66.96;99450.31;5051841;28;20025;-43
2023/10/21 03:27:13;;;;;;;20.20;14.00;;;;;;;15.10;67.65;99459.63;5051887;28;20027;-44
2023/10/21 03:29:41;;;;;;;19.98;13.93;;;;;;;14.97;68.26;99473.31;5051515;28;20021;-43
2023/10/21 03:32:07;;;;;;;20.25;13.48;;;;;;;14.75;69.40;99473.94;5051320;28;20051;-43
2023/10/21 03:34:33;;;;;;;20.77;13.43;;;;;;;14.86;69.01;99472.31;5051902;28;20063;-44
2023/10/21 03:37:02;;;;;;;23.15;14.18;;;;;;;14.89;69.30;99477.19;5051434;28;20465;-46
2023/10/21 03:39:27;;;;;;;21.77;14.07;;;;;;;14.99;68.52;99474.69;5051924;28;20110;-43
2023/10/21 03:41:53;;;;;;;18.55;13.63;;;;;;;14.99;68.28;99463.19;5051235;28;20052;-44
2023/10/21 03:44:18;;;;;;;22.38;13.85;;;;;;;15.02;68.19;99458.16;5050969;28;20017;-44
2023/10/21 03:46:45;;;;;;;21.67;13.50;;;;;;;15.10;68.04;99473.03;5049932;28;20420;-44
2023/10/21 03:49:10;;;;;;;20.45;13.00;;;;;;;15.02;67.65;99470.72;5050760;28;20009;-45
2023/10/21 03:51:36;;;;;;;21.83;12.45;;;;;;;14.89;68.89;99471.84;5050640;28;20048;-46
2023/10/21 03:54:01;;;;;;;18.17;12.23;;;;;;;14.99;68.13;99469.34;5051149;28;20095;-46
2023/10/21 03:56:27;;;;;;;21.23;12.48;;;;;;;15.06;67.43;99469.22;5050448;28;20120;-44
2023/10/21 03:58:53;;;;;;;19.52;12.35;;;;;;;15.17;67.23;99465.66;5050939;28;20017;-44
2023/10/21 04:01:20;;;;;;;20.45;12.95;;;;;;;15.19;67.08;99466.25;5050510;28;20029;-44
2023/10/21 04:03:46;;;;;;;20.95;12.73;;;;;;;15.20;66.85;99462.50;5050436;28;20519;-43
2023/10/21 04:06:13;;;;;;;20.45;12.45;;;;;;;15.09;67.35;99455.31;5051045;28;20033;-42
2023/10/21 04:08:39;;;;;;;20.90;12.70;;;;;;;14.98;67.70;99451.66;5050198;28;20023;-42
2023/10/21 04:11:04;;;;;;;20.88;13.02;;;;;;;15.18;67.06;99453.06;5050574;28;20025;-42
2023/10/21 04:13:30;;;;;;;23.52;13.10;;;;;;;14.12;70.79;99450.66;5050932;28;20029;-42
2023/10/21 04:15:55;;;;;;;20.80;12.55;;;;;;;14.51;69.83;99454.44;5050154;28;20389;-41
2023/10/21 04:18:21;;;;;;;21.40;12.90;;;;;;;14.59;69.46;99446.06;5051153;28;20021;-42
2023/10/21 04:20:46;;;;;;;17.80;11.88;;;;;;;14.76;68.91;99448.81;5050685;28;20086;-44
2023/10/21 04:23:12;;;;;;;21.13;12.77;;;;;;;14.82;68.61;99437.13;5049078;28;20029;-42
2023/10/21 04:25:37;;;;;;;19.75;12.60;;;;;;;14.86;68.09;99451.69;5050634;28;20048;-48
2023/10/21 04:28:03;;;;;;;21.25;12.60;;;;;;;14.98;68.46;99451.66;5038496;28;20025;-43
2023/10/21 04:30:29;;;;;;;21.02;13.15;;;;;;;15.11;67.06;99449.72;5048201;28;20076;-43
2023/10/21 04:32:55;;;;;;;21.08;11.93;;;;;;;14.98;67.47;99446.28;5050253;28;20017;-45
2023/10/21 04:35:20;;;;;;;20.90;12.73;;;;;;;14.83;68.03;99448.66;5050882;28;20064;-43
2023/10/21 04:37:46;;;;;;;25.13;13.55;;;;;;;14.72;69.22;99458.38;5031291;28;20041;-46
2023/10/21 04:40:11;;;;;;;20.95;12.07;;;;;;;14.64;68.58;99467.59;5048352;28;20062;-43
2023/10/21 04:42:38;;;;;;;20.52;12.07;;;;;;;14.45;69.76;99476.81;5051634;28;20032;-45
2023/10/21 04:45:08;;;;;;;23.05;13.35;;;;;;;14.44;69.97;99473.28;5051424;28;20035;-42
2023/10/21 04:47:33;;;;;;;21.08;12.75;;;;;;;14.63;69.14;99483.91;5051278;28;20015;-45
2023/10/21 04:49:58;;;;;;;20.70;14.07;;;;;;;14.73;68.89;99486.78;5051131;28;20025;-44
2023/10/21 04:52:24;;;;;;;20.50;13.63;;;;;;;14.86;68.51;99486.50;5050922;28;20020;-43
2023/10/21 04:54:50;;;;;;;21.90;13.00;;;;;;;15.01;67.63;99487.88;5049172;28;20051;-44
2023/10/21 04:57:16;;;;;;;22.10;12.50;;;;;;;15.05;68.15;99483.66;5048068;28;20036;-43
2023/10/21 04:59:42;;;;;;;22.55;13.98;;;;;;;15.00;68.19;99489.75;5044355;28;20021;-43
2023/10/21 05:02:07;;;;;;;22.58;13.07;;;;;;;15.02;67.70;99490.31;5047953;28;20102;-44
2023/10/21 05:04:34;;;;;;;22.73;13.45;;;;;;;15.16;67.99;99496.19;5045947;28;20036;-45
2023/10/21 05:06:59;;;;;;;20.63;13.27;;;;;;;15.17;67.58;99488.94;5050030;28;20029;-45
2023/10/21 05:09:25;;;;;;;20.20;12.80;;;;;;;14.99;67.92;99506.03;5050447;28;20112;-44
2023/10/21 05:11:50;;;;;;;22.40;12.85;;;;;;;15.21;67.51;99495.47;5047885;28;20477;-44
2023/10/21 05:14:16;;;;;;;21.48;12.68;;;;;;;15.41;67.11;99509.25;5050804;28;20021;-43
2023/10/21 05:16:41;;;;;;;22.00;14.07;;;;;;;15.62;67.48;99499.69;5051584;28;20429;-45
2023/10/21 05:19:06;;;;;;;21.02;13.40;;;;;;;15.73;66.65;99507.91;5054395;28;20075;-42
2023/10/21 05:21:32;;;;;;;27.30;13.35;;;;;;;15.85;66.46;99497.13;5054694;28;20021;-42
2023/10/21 05:23:58;;;;;;;18.98;12.07;;;;;;;16.05;65.85;99512.72;5054158;28;20412;-41
2023/10/21 05:26:25;;;;;;;19.35;12.40;;;;;;;16.18;65.31;99512.38;5054283;28;20119;-41
2023/10/21 05:28:50;;;;;;;17.33;11.80;;;;;;;16.21;65.02;99522.66;5054620;28;20064;-41
2023/10/21 05:31:16;;;;;;;19.40;12.20;;;;;;;16.30;65.12;99523.88;5049542;28;20049;-44
2023/10/21 05:33:41;;;;;;;18.40;11.77;;;;;;;16.58;65.11;99532.81;5052954;28;20571;-42
2023/10/21 05:36:07;;;;;;;17.30;10.95;;;;;;;16.96;64.64;99531.19;5051015;28;20028;-44
2023/10/21 05:38:32;;;;;;;15.98;10.80;;;;;;;17.16;62.84;99539.50;5045899;28;20053;-42
2023/10/21 05:40:58;;;;;;;17.08;10.43;;;;;;;17.34;61.75;99546.44;5052651;28;20025;-38
2023/10/21 05:43:23;;;;;;;24.02;10.10;;;;;;;17.68;60.92;99540.03;5053758;28;20036;-40
2023/10/21 05:45:49;;;;;;;16.38;10.35;;;;;;;18.07;59.21;99548.75;5053566;28;20056;-41
2023/10/21 05:48:14;;;;;;;14.85;9.63;;;;;;;18.38;66.42;99548.16;5053585;28;20025;-41
2023/10/21 05:50:40;;;;;;;20.75;11.30;;;;;;;19.44;65.44;99573.16;5054032;28;20457;-41
2023/10/21 05:53:06;;;;;;;13.20;9.13;;;;;;;19.97;55.90;99573.84;5053271;28;20021;-40
2023/10/21 05:55:31;;;;;;;12.30;9.23;;;;;;;20.13;53.33;99552.22;5052116;28;20028;-40
2023/10/21 05:57:56;;;;;;;16.92;9.25;;;;;;;20.22;53.06;99564.91;5051616;28;20044;-37
2023/10/21 06:00:22;;;;;;;20.05;11.02;;;;;;;19.51;52.71;99558.38;5051802;28;20029;-39
2023/10/21 06:02:48;;;;;;;19.55;11.32;;;;;;;19.78;54.70;99564.63;5052801;28;20021;-40
2023/10/21 06:05:16;;;;;;;17.27;10.55;;;;;;;20.08;55.37;99555.72;5053067;28;20017;-41
2023/10/21 06:07:42;;;;;;;19.77;10.25;;;;;;;20.50;53.65;99562.69;5053077;28;20021;-39
2023/10/21 06:10:08;;;;;;;15.50;9.10;;;;;;;20.84;51.74;99551.28;5053362;28;20576;-39
2023/10/21 06:12:33;;;;;;;16.90;8.65;;;;;;;21.26;50.63;99564.34;5053706;28;20053;-40
2023/10/21 06:14:59;;;;;;;15.93;8.55;;;;;;;21.58;49.74;99565.84;5053952;28;20029;-39
2023/10/21 06:17:25;;;;;;;16.08;9.18;;;;;;;21.77;48.80;99576.81;5053597;28;20064;-40
2023/10/21 06:19:51;;;;;;;13.73;8.98;;;;;;;21.88;48.72;99563.22;5053245;28;20393;-40
2023/10/21 06:22:16;;;;;;;16.80;9.35;;;;;;;22.19;48.12;99567.25;5052443;28;20030;-40
2023/10/21 06:24:41;;;;;;;12.77;8.30;;;;;;;22.48;46.74;99571.91;5051815;28;20103;-41
2023/10/21 06:27:07;;;;;;;12.55;7.95;;;;;;;22.77;46.57;99571.06;5051745;28;20105;-42
2023/10/21 06:29:35;;;;;;;15.50;8.48;;;;;;;23.14;45.78;99564.94;5051934;28;20036;-41
2023/10/21 06:32:04;;;;;;;14.77;8.90;;;;;;;23.42;44.14;99568.66;5052475;28;20021;-40
2023/10/21 06:34:29;;;;;;;16.30;8.65;;;;;;;23.75;44.16;99579.56;5050842;28;20417;-41
2023/10/21 06:36:55;;;;;;;15.55;8.57;;;;;;;24.08;43.68;99559.78;5052533;28;20029;-43
2023/10/21 06:39:21;;;;;;;12.07;8.25;;;;;;;24.15;42.66;99569.16;5052218;28;20021;-40
2023/10/21 06:41:46;;;;;;;17.52;9.18;;;;;;;24.34;41.18;99571.03;5052041;28;20059;-40
2023/10/21 06:44:12;;;;;;;15.38;8.45;;;;;;;24.38;41.75;99577.47;5051780;28;20516;-42
2023/10/21 06:46:38;;;;;;;18.45;9.23;;;;;;;24.33;41.43;99574.84;5052042;28;20602;-40
2023/10/21 06:49:04;;;;;;;15.93;9.38;;;;;;;24.33;42.19;99583.00;5051978;28;20338;-41
2023/10/21 06:51:29;;;;;;;16.42;9.40;;;;;;;24.44;41.36;99583.63;5052374;28;20511;-42
2023/10/21 06:53:55;;;;;;;18.90;9.75;;;;;;;24.15;41.28;99566.44;5052333;28;20025;-39
2023/10/21 06:56:21;;;;;;;12.55;8.32;;;;;;;24.07;41.48;99580.72;5050810;28;20021;-42
2023/10/21 06:58:47;;;;;;;14.65;8.93;;;;;;;24.14;41.79;99574.91;5051873;28;20064;-41
2023/10/21 07:01:14;;;;;;;15.60;8.75;;;;;;;24.28;41.89;99583.13;5046012;28;20025;-42
2023/10/21 07:03:40;;;;;;;19.80;9.60;;;;;;;24.53;41.91;99596.28;5051918;28;20108;-38
2023/10/21 07:06:05;;;;;;;15.40;9.43;;;;;;;24.52;41.62;99583.78;5051933;28;20536;-42
2023/10/21 07:08:33;;;;;;;14.65;8.80;;;;;;;24.68;41.20;99584.31;5051458;28;20021;-39
2023/10/21 07:10:59;;;;;;;17.10;9.65;;;;;;;24.93;41.21;99577.56;5050719;28;20025;-40
2023/10/21 07:13:24;;;;;;;15.73;9.20;;;;;;;25.16;40.69;99588.53;5051810;28;20040;-39
2023/10/21 07:15:51;;;;;;;16.88;8.82;;;;;;;25.53;40.25;99575.75;5051018;28;20056;-40
2023/10/21 07:18:16;;;;;;;13.73;8.77;;;;;;;25.61;40.13;99585.94;5051655;28;20059;-42
2023/10/21 07:20:42;;;;;;;18.33;9.23;;;;;;;25.73;40.23;99588.94;5050983;28;20037;-41
2023/10/21 07:23:12;;;;;;;13.73;8.45;;;;;;;26.00;39.88;99576.31;5050985;28;20079;-41
2023/10/21 07:25:39;;;;;;;15.38;9.00;;;;;;;26.08;39.59;99597.41;5051821;28;20025;-43
2023/10/21 07:28:05;;;;;;;12.73;8.93;;;;;;;26.13;39.22;99585.56;5051925;28;20017;-43
2023/10/21 07:30:30;;;;;;;16.95;8.65;;;;;;;26.10;40.03;99584.28;5051723;28;20028;-42
2023/10/21 07:32:56;;;;;;;15.68;9.18;;;;;;;25.94;40.04;99572.13;5051436;28;20017;-41
2023/10/21 07:35:21;;;;;;;16.40;9.10;;;;;;;26.12;40.18;99581.22;5051203;28;20037;-42
2023/10/21 07:37:47;;;;;;;12.35;9.07;;;;;;;26.41;39.87;99579.97;5049622;28;20104;-41
2023/10/21 07:40:13;;;;;;;15.65;9.70;;;;;;;26.53;39.21;99575.50;5047679;28;20029;-41
2023/10/21 07:42:38;;;;;;;17.20;10.25;;;;;;;26.48;39.60;99588.47;5049259;28;20484;-41
2023/10/21 07:45:05;;;;;;;18.95;9.90;;;;;;;26.70;38.75;99568.56;5049292;28;20036;-39
2023/10/21 07:47:33;;;;;;;16.15;10.25;;;;;;;26.79;38.94;99574.84;5049302;28;20028;-41
2023/10/21 07:49:58;;;;;;;16.67;10.65;;;;;;;26.87;38.29;99574.06;5049684;28;20021;-39
2023/10/21 07:52:24;;;;;;;14.95;10.10;;;;;;;27.01;38.18;99573.94;5049899;28;20025;-39
2023/10/21 07:54:52;;;;;;;17.67;10.38;;;;;;;26.69;39.44;99575.94;5050763;28;20035;-41
2023/10/21 07:57:17;;;;;;;16.27;10.57;;;;;;;27.06;38.77;99573.00;5050672;28;20222;-41
2023/10/21 07:59:44;;;;;;;15.25;10.48;;;;;;;27.04;39.14;99572.53;5050752;28;20129;-41
2023/10/21 08:02:10;;;;;;;20.83;11.30;;;;;;;27.11;39.07;99581.84;5051010;28;20062;-41
2023/10/21 08:04:35;;;;;;;22.15;10.93;;;;;;;27.07;39.41;99582.78;5051055;28;20057;-43
2023/10/21 08:07:00;;;;;;;18.08;10.48;;;;;;;27.04;39.69;99572.53;5050551;28;20465;-43
2023/10/21 08:09:26;;;;;;;17.77;10.20;;;;;;;27.22;40.01;99573.34;5050988;28;20025;-43
2023/10/21 08:11:52;;;;;;;24.23;10.52;;;;;;;27.16;40.17;99572.69;5050974;28;20032;-39
2023/10/21 08:14:18;;;;;;;16.33;10.23;;;;;;;27.25;39.29;99570.81;5050909;28;20031;-43
2023/10/21 08:16:43;;;;;;;15.68;9.60;;;;;;;27.21;39.84;99567.09;5050547;28;20025;-42
2023/10/21 08:19:09;;;;;;;17.13;10.50;;;;;;;27.28;39.39;99569.38;5050238;28;20029;-42
2023/10/21 08:21:35;;;;;;;19.13;9.43;;;;;;;27.14;40.04;99565.94;5050119;28;20511;-42
2023/10/21 08:24:02;;;;;;;21.70;9.95;;;;;;;27.25;39.48;99561.81;5050867;28;20020;-41
2023/10/21 08:26:29;;;;;;;14.93;9.77;;;;;;;27.24;39.50;99566.44;5050698;28;20378;-42
2023/10/21 08:28:55;;;;;;;22.10;10.27;;;;;;;26.95;40.15;99558.84;5050492;28;20045;-40
2023/10/21 08:31:22;;;;;;;22.38;10.35;;;;;;;26.92;40.22;99563.00;5050192;28;20514;-43
2023/10/21 08:33:47;;;;;;;21.45;10.23;;;;;;;26.86;40.32;99558.00;5050607;28;20021;-42
2023/10/21 08:36:16;;;;;;;17.35;10.02;;;;;;;26.88;40.70;99561.22;5050271;28;20476;-42
2023/10/21 08:38:41;;;;;;;15.32;8.68;;;;;;;26.53;42.27;99558.34;5050223;28;20059;-44
2023/10/21 08:41:12;;;;;;;19.10;8.70;;;;;;;26.71;41.42;99567.41;5050594;28;20025;-42
2023/10/21 08:43:38;;;;;;;13.00;8.82;;;;;;;26.78;41.08;99572.44;5050441;28;20026;-42
2023/10/21 08:46:06;;;;;;;15.15;7.93;;;;;;;26.88;41.18;99548.41;5050860;28;20039;-41
2023/10/21 08:48:34;;;;;;;12.00;7.93;;;;;;;25.96;43.14;99553.53;5050809;28;20024;-43
2023/10/21 08:51:01;;;;;;;11.30;8.27;;;;;;;26.61;41.10;99551.34;5050757;28;20035;-43
2023/10/21 08:53:27;;;;;;;13.50;7.38;;;;;;;26.46;41.08;99556.03;5054633;28;20442;-41
2023/10/21 08:55:52;;;;;;;15.23;7.00;;;;;;;25.73;43.33;99558.16;5054526;28;20028;-43
2023/10/21 08:58:18;;;;;;;12.52;7.20;;;;;;;25.39;43.98;99551.31;5054150;28;20174;-40
2023/10/21 09:00:44;;;;;;;13.13;6.95;;;;;;;25.73;44.04;99548.06;5053954;28;20028;-43
2023/10/21 09:03:12;;;;;;;12.13;6.60;;;;;;;26.34;43.17;99540.28;5054209;28;20096;-41
2023/10/21 09:06:10;;;;;;;16.75;7.28;;;;;;;26.74;42.77;99546.91;5054514;28;20544;-43
2023/10/21 09:08:37;;;;;;;15.20;6.88;;;;;;;27.32;41.65;99543.00;5054430;28;20031;-42
2023/10/21 09:11:08;;;;;;;12.15;6.72;;;;;;;27.47;41.04;99542.56;5054463;28;20082;-43
2023/10/21 09:13:41;;;;;;;15.82;7.05;;;;;;;27.76;40.51;99535.63;5053837;28;20065;-42
2023/10/21 09:16:21;;;;;;;11.75;6.80;;;;;;;27.77;40.85;99536.44;5054233;28;20063;-43
2023/10/21 09:19:03;;;;;;;12.60;6.80;;;;;;;27.90;40.59;99534.69;5053364;28;20108;-43
2023/10/21 09:21:39;;;;;;;11.27;6.80;;;;;;;28.07;40.17;99535.44;5054096;28;20076;-40
2023/10/21 09:24:11;;;;;;;11.88;7.15;;;;;;;26.93;41.88;99522.84;5053559;28;20032;-44
2023/10/21 09:26:42;;;;;;;12.93;7.22;;;;;;;27.06;42.67;99516.47;5053849;28;20461;-42
2023/10/21 09:29:13;;;;;;;9.82;6.38;;;;;;;26.92;42.45;99508.41;5054273;28;20112;-43
2023/10/21 09:31:44;;;;;;;12.93;6.18;;;;;;;27.53;40.96;99515.88;5053532;28;20029;-43
2023/10/21 09:34:10;;;;;;;11.98;6.90;;;;;;;27.68;40.71;99504.47;5053670;28;20554;-42
2023/10/21 09:36:40;;;;;;;11.30;6.60;;;;;;;27.50;41.88;99505.59;5053964;28;20116;-42
2023/10/21 09:39:05;;;;;;;10.52;6.82;;;;;;;26.68;42.64;99506.09;5053234;28;20085;-43
2023/10/21 09:41:31;;;;;;;10.77;6.68;;;;;;;26.34;43.10;99502.09;5053634;28;20059;-42
2023/10/21 09:44:00;;;;;;;9.63;6.63;;;;;;;25.85;44.28;99497.63;5053647;28;20029;-40
2023/10/21 09:46:28;;;;;;;;;;;;;;;26.67;42.54;99499.06;5054011;28;20037;-40
2023/10/21 09:48:57;;;;;;;;;;;;;;;27.11;41.08;99490.91;5054103;28;19919;-42
2023/10/21 09:51:24;;;;;;;;;;;;;;;27.59;40.66;99483.72;5054091;28;19916;-43
2023/10/21 09:53:56;;;;;;;;;;;;;;;27.89;39.68;99479.19;5054086;28;20398;-43
2023/10/21 09:56:22;;;;;;;;;;;;;;;26.89;41.23;99479.00;5054020;28;19908;-42
2023/10/21 09:58:49;;;;;;;;;;;;;;;27.03;41.25;99480.78;5054133;28;19962;-42
2023/10/21 10:01:17;;;;;;;;;;;;;;;27.42;39.87;99479.09;5053851;28;19908;-43
2023/10/21 10:03:43;;;;;;;;;;;;;;;27.86;39.13;99477.09;5053024;28;19912;-45
2023/10/21 10:06:09;;;;;;;;;;;;;;;27.67;39.81;99475.50;5053852;28;20300;-41
2023/10/21 10:08:35;;;;;;;;;;;;;;;27.71;40.08;99472.94;5053904;28;19909;-44
2023/10/21 10:11:07;;;;;;;;;;;;;;;27.82;39.76;99467.94;5053623;28;19959;-41
2023/10/21 10:13:34;;;;;;;;;;;;;;;27.86;40.36;99455.22;5053473;28;19915;-42
2023/10/21 10:16:17;;;;;;;;;;;;;;;28.14;39.93;99457.53;5053708;28;19909;-45
2023/10/21 10:18:46;;;;;;;;;;;;;;;28.62;39.42;99453.66;5053157;28;20435;-46
2023/10/21 10:21:13;;;;;;;;;;;;;;;28.22;39.34;99446.59;5053507;28;20410;-42
2023/10/21 10:23:39;;;;;;;;;;;;;;;28.24;39.43;99449.00;5053299;28;19970;-41
2023/10/21 10:26:04;;;;;;;;;;;;;;;28.50;38.60;99442.56;5053053;28;19908;-43
2023/10/21 10:28:31;;;;;;;;;;;;;;;28.51;38.28;99438.72;5053294;28;20398;-42
2023/10/21 10:30:56;;;;;;;;;;;;;;;28.01;38.93;99438.31;5053354;28;19908;-41
2023/10/21 10:33:28;;;;;;;;;;;;;;;27.06;40.79;99433.75;5053580;28;20273;-42
2023/10/21 10:36:06;;;;;;;;;;;;;;;27.87;40.25;99433.03;5053310;28;19920;-42
2023/10/21 10:38:33;;;;;;;;;;;;;;;28.01;39.27;99427.38;5053000;28;19970;-43
2023/10/21 10:41:06;;;;;;;;;;;;;;;28.77;37.58;99428.44;5051101;28;19912;-45
2023/10/21 10:43:31;;;;;;;;;;;;;;;28.75;36.75;99419.75;5046508;28;19973;-44
2023/10/21 10:45:57;;;;;;;;;;;;;;;28.52;36.86;99412.97;5051191;28;19909;-43
2023/10/21 10:48:22;;;;;;;;;;;;;;;28.40;37.33;99416.41;5050805;28;19942;-44
2023/10/21 10:50:47;;;;;;;;;;;;;;;28.39;37.12;99415.59;5051390;28;19921;-46
2023/10/21 10:53:20;;;;;;;;;;;;;;;28.69;36.15;99410.13;5047772;28;20065;-47
2023/10/21 10:55:49;;;;;;;;;;;;;;;29.21;35.73;99409.75;5050889;28;20284;-43
2023/10/21 10:58:18;;;;;;;;;;;;;;;28.41;36.44;99399.66;5052289;28;20395;-43
2023/10/21 11:00:45;;;;;;;;;;;;;;;28.95;36.17;99404.44;5050416;28;19920;-45
2023/10/21 11:03:10;;;;;;;;;;;;;;;28.95;36.31;99403.66;5052766;28;20059;-44
2023/10/21 11:05:37;;;;;;;;;;;;;;;28.96;35.65;99397.03;5052481;28;20007;-45
2023/10/21 11:08:04;;;;;;;;;;;;;;;29.46;34.35;99401.59;5052692;28;19983;-47
2023/10/21 11:10:30;;;;;;;;;;;;;;;29.40;34.94;99398.28;5048755;28;19919;-45
2023/10/21 11:12:55;;;;;;;;;;;;;;;29.26;35.28;99399.72;5052561;28;19909;-46
2023/10/21 11:15:22;;;;;;;;;;;;;;;29.43;35.12;99396.78;5050666;28;20007;-44
2023/10/21 11:17:48;;;;;;;;;;;;;;;29.37;35.37;99398.16;5052270;28;19913;-46
2023/10/21 11:20:14;;;;;;;;;;;;;;;29.26;34.83;99386.00;5052251;28;19919;-46
2023/10/21 11:22:40;;;;;;;;;;;;;;;29.16;34.69;99387.22;5051734;28;19908;-44
2023/10/21 11:25:06;;;;;;;;;;;;;;;29.90;33.68;99395.66;5052515;28;20363;-47
2023/10/21 11:27:31;;;;;;;;;;;;;;;30.52;32.33;99391.78;5052478;28;19959;-47
2023/10/21 11:29:57;;;;;;;;;;;;;;;29.56;33.76;99381.19;5051402;28;19919;-45